Terminal Aerodrome Forecast
Issued by NWS Brownsville, TX

Current Version | Previous Version | Text Only | Print | Product List | Glossary Off
Versions: 1 2 3 4 5 6 7 8 9 10 11 12 13 14 15

000
FTUS44 KBRO 241534 AAB
TAFBRO
TAF AMD
KBRO 241534Z 2416/2512 14010KT P6SM VCSH SCT040
     FM241800 13012G18KT P6SM VCTS BKN040CB
     FM242200 12008KT P6SM SCT030=

USA.gov is the U.S. government's official web portal to all federal, state and local government web resources and services.